Time;durP1;ratioP1;P1;durP2;ratioP2;P2;SDS_P1;SDS_P2;PMS_P1;PMS_P2;Temp;Humidity;BMP_temperature;BMP_pressure;BME280_temperature;BME280_humidity;BME280_pressure;Samples;Min_cycle;Max_cycle;Signal;HPM_P1;HPM_P2
2023/08/08 00:09:17;;;;;;;2.60;1.17;;;;;;;13.79;66.77;99764.66;30971158;28;99348;-73
2023/08/08 00:24:17;;;;;;;4.90;1.50;;;;;;;13.76;66.49;99766.88;30969932;28;97043;-73
2023/08/08 00:39:18;;;;;;;5.60;1.77;;;;;;;13.61;66.13;99775.88;30967811;28;103664;-73
2023/08/08 00:54:21;;;;;;;6.22;1.40;;;;;;;13.59;66.37;99774.47;30967155;28;96724;-73
2023/08/08 01:09:32;;;;;;;3.07;1.40;;;;;;;13.46;65.72;99778.72;30966135;28;97093;-73
2023/08/08 01:24:36;;;;;;;2.43;1.10;;;;;;;13.07;66.20;99782.81;30965752;28;97155;-73
2023/08/08 01:39:38;;;;;;;4.87;1.60;;;;;;;12.77;66.81;99776.88;30961486;28;97761;-73
2023/08/08 01:54:38;;;;;;;2.13;1.20;;;;;;;12.55;67.12;99774.22;30962471;28;97178;-74
2023/08/08 02:09:39;;;;;;;5.85;1.40;;;;;;;12.31;67.25;99770.94;30959792;28;97189;-73
2023/08/08 02:24:39;;;;;;;2.63;1.23;;;;;;;12.12;67.92;99783.06;30959332;28;97142;-73
2023/08/08 02:39:39;;;;;;;9.77;1.77;;;;;;;11.98;68.33;99776.78;30958343;28;109229;-72
2023/08/08 02:54:40;;;;;;;3.33;1.35;;;;;;;11.90;68.36;99784.88;30966892;28;96662;-73
2023/08/08 03:09:40;;;;;;;3.63;1.23;;;;;;;11.81;68.32;99797.53;30976601;28;96827;-73
2023/08/08 03:24:40;;;;;;;3.20;1.40;;;;;;;11.77;68.19;99814.06;30974418;28;97048;-73
2023/08/08 03:39:41;;;;;;;4.95;1.40;;;;;;;11.69;68.01;99820.38;30970882;28;108438;-73
2023/08/08 03:54:42;;;;;;;4.30;1.25;;;;;;;11.63;68.03;99837.09;31049281;28;97365;-73
2023/08/08 04:09:43;;;;;;;2.83;1.30;;;;;;;11.69;68.09;99847.06;31089227;28;97056;-72
2023/08/08 04:24:43;;;;;;;4.13;1.55;;;;;;;11.95;68.19;99846.56;31089620;28;97330;-73
2023/08/08 04:39:44;;;;;;;2.88;1.33;;;;;;;12.71;67.69;99882.66;31087428;28;97584;-73
2023/08/08 04:54:44;;;;;;;3.60;1.23;;;;;;;13.29;66.35;99887.06;31087432;28;101299;-73
2023/08/08 05:09:44;;;;;;;3.58;1.15;;;;;;;13.68;65.21;99896.38;31083552;28;97333;-73
2023/08/08 05:24:45;;;;;;;5.28;1.60;;;;;;;14.16;63.83;99911.63;31089479;28;97170;-75
2023/08/08 05:39:45;;;;;;;2.83;1.30;;;;;;;14.60;62.35;99912.16;31084779;28;96909;-75
2023/08/08 05:54:45;;;;;;;4.00;1.48;;;;;;;14.67;61.57;99915.72;31082662;28;97091;-75
2023/08/08 06:09:46;;;;;;;4.95;1.33;;;;;;;15.13;61.23;99914.06;31084416;28;115125;-74
2023/08/08 06:24:46;;;;;;;3.58;1.13;;;;;;;15.68;59.86;99909.25;31081799;28;97311;-75
2023/08/08 06:39:46;;;;;;;3.70;1.33;;;;;;;15.79;57.71;99915.00;31103660;28;98682;-70
2023/08/08 06:54:47;;;;;;;5.47;2.25;;;;;;;16.35;56.39;99905.53;31099386;28;115111;-78
2023/08/08 07:09:48;;;;;;;1.92;1.00;;;;;;;17.36;52.48;99900.22;31111115;28;97273;-73
2023/08/08 07:24:49;;;;;;;1.93;0.83;;;;;;;18.17;49.65;99892.91;31105622;28;97088;-79
2023/08/08 07:39:52;;;;;;;3.22;0.77;;;;;;;17.62;47.02;99903.69;31091322;28;97198;-73
2023/08/08 07:54:55;;;;;;;2.23;0.70;;;;;;;17.34;47.21;99910.41;31107991;28;98552;-76
2023/08/08 08:09:56;;;;;;;3.73;1.00;;;;;;;18.67;45.13;99890.97;31094385;28;98204;-82
2023/08/08 08:24:56;;;;;;;0.80;0.60;;;;;;;19.94;41.13;99886.91;31094829;28;97400;-69
2023/08/08 08:39:57;;;;;;;2.47;0.60;;;;;;;20.28;39.35;99880.75;31088835;28;97301;-73
2023/08/08 08:54:57;;;;;;;0.93;0.63;;;;;;;19.50;39.30;99882.94;31090208;27;100460;-77
2023/08/08 09:09:57;;;;;;;2.58;0.80;;;;;;;20.27;38.61;99881.81;31087488;28;96788;-73
2023/08/08 09:24:58;;;;;;;4.38;0.60;;;;;;;21.58;35.95;99882.63;31085291;28;101566;-75
2023/08/08 09:39:59;;;;;;;1.00;0.60;;;;;;;23.02;34.36;99890.63;31025437;28;97950;-72
2023/08/08 09:55:00;;;;;;;7.00;1.87;;;;;;;23.33;32.44;99878.09;30958667;28;97290;-73
2023/08/08 10:10:01;;;;;;;1.55;0.50;;;;;;;20.70;35.88;99879.66;30956447;28;97252;-69
2023/08/08 10:25:03;;;;;;;2.30;0.90;;;;;;;19.72;37.89;99885.84;30957015;28;96971;-72
2023/08/08 10:40:06;;;;;;;2.17;0.87;;;;;;;20.24;37.88;99885.84;31015856;28;97081;-73
2023/08/08 10:55:25;;;;;;;4.50;1.00;;;;;;;22.27;35.95;99877.72;31075856;28;97248;-78
2023/08/08 11:10:30;;;;;;;3.47;0.87;;;;;;;21.93;35.97;99865.16;31074993;28;97095;-70
2023/08/08 11:25:31;;;;;;;1.63;0.90;;;;;;;21.33;36.95;99871.41;31100881;28;97367;-67
2023/08/08 11:40:32;;;;;;;2.13;1.10;;;;;;;22.13;36.45;99866.47;31111762;28;97414;-65
2023/08/08 11:55:32;;;;;;;2.67;1.17;;;;;;;21.96;36.70;99859.22;31094049;28;97166;-66
2023/08/08 12:10:32;;;;;;;1.33;0.97;;;;;;;23.05;34.94;99857.53;31091375;28;97338;-70
2023/08/08 12:25:33;;;;;;;3.03;0.80;;;;;;;22.39;36.84;99853.16;31086387;28;101945;-68
2023/08/08 12:40:33;;;;;;;1.70;1.10;;;;;;;21.82;37.74;99855.25;31084432;28;111012;-65
2023/08/08 12:55:34;;;;;;;2.53;0.80;;;;;;;21.94;37.70;99847.81;31084653;28;97042;-67
2023/08/08 13:10:35;;;;;;;5.50;1.20;;;;;;;22.21;36.77;99838.03;31124951;28;97339;-66
2023/08/08 13:25:36;;;;;;;3.83;1.07;;;;;;;22.08;36.79;99833.84;31081280;28;96786;-66
2023/08/08 13:40:36;;;;;;;2.73;1.00;;;;;;;21.04;37.98;99842.53;31079496;28;97520;-72
2023/08/08 13:55:39;;;;;;;2.20;0.90;;;;;;;21.91;37.98;99826.63;31079865;28;97433;-73
2023/08/08 14:10:40;;;;;;;2.53;1.20;;;;;;;23.23;35.99;99823.69;31078608;28;97226;-71
2023/08/08 14:25:41;;;;;;;2.95;1.17;;;;;;;22.92;34.99;99824.31;31075790;28;96890;-67
2023/08/08 14:40:42;;;;;;;1.40;0.77;;;;;;;22.25;35.93;99826.44;31078071;28;96944;-66
2023/08/08 14:55:42;;;;;;;1.95;1.20;;;;;;;22.34;37.22;99806.97;31116206;28;97478;-71
2023/08/08 15:10:42;;;;;;;3.72;1.10;;;;;;;21.93;36.69;99815.53;31076927;28;111711;-71
2023/08/08 15:25:43;;;;;;;3.90;1.00;;;;;;;21.07;38.17;99822.28;31069296;28;97465;-70
2023/08/08 15:40:44;;;;;;;1.53;1.00;;;;;;;20.49;39.53;99829.72;31093111;28;98521;-70
2023/08/08 15:55:44;;;;;;;1.50;0.90;;;;;;;20.45;39.98;99824.81;31092537;28;97727;-70
2023/08/08 16:10:45;;;;;;;1.33;0.80;;;;;;;20.05;40.95;99800.56;31093572;28;97318;-70
2023/08/08 16:25:45;;;;;;;;;;;;;;;20.24;41.04;99801.16;31090878;28;97140;-70
2023/08/08 16:40:46;;;;;;;1.52;0.93;;;;;;;19.67;42.13;99802.81;31088137;28;96840;-69
2023/08/08 16:55:46;;;;;;;2.53;0.98;;;;;;;19.30;43.47;99796.91;31086543;28;97278;-70
2023/08/08 17:10:46;;;;;;;2.55;1.23;;;;;;;19.02;44.81;99810.06;31084344;28;109277;-70
2023/08/08 17:25:47;;;;;;;3.05;1.20;;;;;;;18.42;46.58;99795.66;31086112;28;97038;-69
2023/08/08 17:40:47;;;;;;;2.08;1.10;;;;;;;17.96;48.04;99805.28;31086707;28;97459;-69
2023/08/08 17:55:47;;;;;;;1.70;0.90;;;;;;;17.42;50.56;99821.25;31083076;28;111349;-70
2023/08/08 18:10:48;;;;;;;2.45;1.27;;;;;;;17.12;52.62;99878.50;31083587;28;97619;-69
2023/08/08 18:25:49;;;;;;;2.37;1.50;;;;;;;16.99;53.77;99836.41;31092099;28;96771;-70
2023/08/08 18:40:50;;;;;;;3.22;1.17;;;;;;;16.74;52.47;99860.56;31102262;28;96794;-69
2023/08/08 18:55:51;;;;;;;6.10;1.43;;;;;;;16.74;52.35;99892.84;31102030;28;96640;-69
2023/08/08 19:10:51;;;;;;;3.03;1.10;;;;;;;16.18;54.49;99940.09;31094861;28;97615;-67
2023/08/08 19:25:58;;;;;;;3.63;1.20;;;;;;;15.04;58.74;99890.16;31092206;28;97944;-68
2023/08/08 19:40:59;;;;;;;9.33;5.67;;;;;;;14.92;61.36;99899.03;31094531;28;96762;-66
2023/08/08 19:56:00;;;;;;;3.65;1.60;;;;;;;14.91;62.45;99892.81;31092818;28;97543;-66
2023/08/08 20:11:00;;;;;;;3.53;1.50;;;;;;;14.98;62.94;99892.81;31087049;28;96822;-66
2023/08/08 20:26:02;;;;;;;3.08;1.50;;;;;;;15.01;63.96;99897.81;31090145;28;97967;-66
2023/08/08 20:41:03;;;;;;;4.37;1.53;;;;;;;14.89;64.21;99895.72;31091822;28;97328;-66
2023/08/08 20:56:03;;;;;;;12.07;5.38;;;;;;;14.97;65.04;99892.00;31077185;28;101696;-66
2023/08/08 21:11:03;;;;;;;3.58;1.40;;;;;;;15.12;64.89;99891.81;31087606;28;96967;-66
2023/08/08 21:26:04;;;;;;;3.90;1.52;;;;;;;14.87;65.03;99897.78;31088524;28;96647;-66
2023/08/08 21:41:04;;;;;;;4.18;1.70;;;;;;;14.71;65.45;99890.97;31085688;28;97066;-66
2023/08/08 21:56:05;;;;;;;3.97;1.70;;;;;;;14.52;66.03;99889.06;31085355;28;101343;-66
2023/08/08 22:11:05;;;;;;;1.85;1.02;;;;;;;14.52;66.07;99894.41;31085238;28;97195;-66
2023/08/08 22:26:05;;;;;;;4.10;1.50;;;;;;;14.47;65.62;99903.03;31084387;28;106337;-66
2023/08/08 22:41:05;;;;;;;1.67;1.08;;;;;;;14.47;65.78;99895.00;31082791;28;105137;-66
2023/08/08 22:56:06;;;;;;;1.88;1.33;;;;;;;14.54;65.27;99895.03;31081875;28;97096;-66
2023/08/08 23:11:06;;;;;;;3.10;1.27;;;;;;;14.44;64.90;99895.41;31088690;28;97468;-66
2023/08/08 23:26:06;;;;;;;3.38;1.42;;;;;;;14.28;64.49;99895.78;31100312;28;104808;-66
2023/08/08 23:41:07;;;;;;;3.10;1.63;;;;;;;14.34;64.32;99897.69;31097750;28;112502;-66
2023/08/08 23:56:07;;;;;;;3.95;1.67;;;;;;;14.39;64.43;99905.91;31096215;28;97708;-67
